Maersk Newport — OZDJ2 — position and weather

sailwx.info

Track history (hours):
 
Tides and Currents Weather Stations Pressure Air Temp Water Temp Dewpoint Dewpoint Depression Visibility Wind Speed Wind Dir Waves Ship Positions

Maersk Newport

Last reported at 2017-Oct-19 12:00 UTC. Time now 2017-Oct-20 12:45 UTC.
Position N 35°42' E 015°54'.

Length 210 m; draft 9 m.

Type: Ship. MMSI: 219223000.

Wind from 180 at 9 knots

Barometer 1020.1 mb
Air temperature 27.0 ° C
Visibility: greater than 10.8 NM

Date/timePositionNaut miles runAvg speedWind from/ knotsBaromVisibWave heightAir tempDewpointWater temp
2017-Oct-19 12:00N 35°42' E 015°54'6315.8 180 / 91020.110.8 27.0
2017-Oct-19 08:00N 36°06' E 014°42'319.6 180 / 101020.010.8 23.518.023.4
2017-Oct-19 07:51N 36°07' E 014°45'514.7
2017-Oct-19 07:30N 36°09' E 014°39'714.6
2017-Oct-19 07:00N 36°11' E 014°30'814.8
2017-Oct-19 06:30N 36°14' E 014°21'714.7
2017-Oct-19 06:00N 36°17' E 014°13'714.5
2017-Oct-19 05:30N 36°19' E 014°05'714.9
2017-Oct-19 05:00N 36°22' E 013°56'814.9
2017-Oct-19 04:30N 36°25' E 013°47'714.6
2017-Oct-19 04:00N 36°28' E 013°39'37314.3
2017-Oct-18 02:01N 37°21' E 005°58'214.6
2017-Oct-18 01:52N 37°21' E 005°55'53315.0
2017-Oct-16 14:22N 36°02' W 005°02'1315.7
2017-Oct-16 13:31N 36°03' W 005°19'714.3
2017-Oct-16 13:00N 36°08' W 005°24'1 0.2
2017-Oct-16 05:18N 36°09' W 005°26'0 0.0
2017-Oct-16 05:00N 36°09' W 005°26'0 0.0
2017-Oct-16 04:27N 36°09' W 005°26'0 0.0
2017-Oct-16 04:00N 36°09' W 005°26'0 0.0
2017-Oct-16 03:27N 36°09' W 005°26'0 0.0
2017-Oct-16 03:00N 36°09' W 005°26'0 0.0
2017-Oct-16 01:09N 36°09' W 005°26'0 0.0
2017-Oct-16 01:00N 36°09' W 005°26'0 0.0
2017-Oct-16 00:30N 36°09' W 005°26'0 0.0
2017-Oct-16 00:00N 36°09' W 005°26'0 0.0
2017-Oct-15 23:30N 36°09' W 005°26'0 0.0
2017-Oct-15 22:57N 36°09' W 005°26'0 0.0
2017-Oct-15 22:21N 36°09' W 005°26'0 0.0
2017-Oct-15 22:00N 36°09' W 005°26'0 0.0
2017-Oct-15 21:30N 36°09' W 005°26'0 0.0
2017-Oct-15 20:57N 36°09' W 005°26'0 0.0
2017-Oct-15 20:30N 36°09' W 005°26'0 0.0
2017-Oct-15 19:42N 36°09' W 005°26'0 0.0
2017-Oct-15 19:30N 36°09' W 005°26'0 0.0
2017-Oct-15 19:00N 36°09' W 005°26'0 0.0
2017-Oct-14 22:57N 36°09' W 005°26'2 3.3
2017-Oct-14 22:29N 36°09' W 005°24'5 9.4
2017-Oct-14 21:58N 36°04' W 005°21'612.7
2017-Oct-14 21:30N 36°04' W 005°14'815.1
2017-Oct-14 20:59N 36°05' W 005°05'19715.1
2017-Oct-14 08:00N 37°06' W 001°12'414.5 040 / 131025.910.8 23.520.424.2
2017-Oct-14 07:45N 37°09' W 001°10'816.3
2017-Oct-14 07:15N 37°14' W 001°02'416.2
2017-Oct-14 07:00N 37°17' W 000°58'816.2
2017-Oct-14 06:30N 37°22' W 000°50'816.0
2017-Oct-14 06:00N 37°28' W 000°43'816.1
2017-Oct-14 05:30N 37°33' W 000°36'816.1
2017-Oct-14 05:00N 37°39' W 000°29'816.3
2017-Oct-14 04:29N 37°46' W 000°23'816.5
2017-Oct-14 04:00N 37°53' W 000°17'816.5
2017-Oct-14 03:30N 37°60' W 000°12'816.5
2017-Oct-14 03:00N 38°07' W 000°06'816.4
2017-Oct-14 02:30N 38°13' W 000°00'916.3
2017-Oct-14 01:57N 38°21' E 000°06'716.2
2017-Oct-14 01:30N 38°27' E 000°12'816.2
2017-Oct-14 01:00N 38°33' E 000°18'815.9
2017-Oct-14 00:30N 38°40' E 000°23'714.5
2017-Oct-14 00:00N 38°47' E 000°23'225 7.1
2017-Oct-12 16:23N 41°45' E 003°24'917.1
2017-Oct-12 15:52N 41°52' E 003°32'617.7
2017-Oct-12 15:30N 41°57' E 003°38'917.4
2017-Oct-12 15:00N 42°03' E 003°46'917.7
2017-Oct-12 14:30N 42°10' E 003°54'917.6
2017-Oct-12 14:00N 42°16' E 004°02'917.7
2017-Oct-12 13:30N 42°23' E 004°10'917.8
2017-Oct-12 13:00N 42°29' E 004°18'917.9
2017-Oct-12 12:31N 42°36' E 004°26'918.2
2017-Oct-12 12:00N 42°43' E 004°34'918.1
2017-Oct-12 11:31N 42°50' E 004°41'918.0
2017-Oct-12 11:00N 42°58' E 004°48'918.3
2017-Oct-12 10:30N 43°05' E 004°56'917.7
2017-Oct-12 10:00N 43°13' E 005°01'917.6
2017-Oct-12 09:30N 43°22' E 004°58'510.6
2017-Oct-12 09:00N 43°24' E 004°52'1 2.1
2017-Oct-12 08:31N 43°25' E 004°50'0 0.0
2017-Oct-12 07:58N 43°25' E 004°50'0 0.0
2017-Oct-12 07:31N 43°25' E 004°50'22 0.7
2017-Oct-11 00:00N 43°03' E 004°57'0 0.4
2017-Oct-10 23:30N 43°03' E 004°57'0 0.6
2017-Oct-10 23:00N 43°04' E 004°57'0 0.5
2017-Oct-10 22:30N 43°04' E 004°57'0 0.2
2017-Oct-10 22:00N 43°04' E 004°57'0 0.3
2017-Oct-10 21:31N 43°04' E 004°57'0 0.3
2017-Oct-10 21:00N 43°04' E 004°57'0 0.1
2017-Oct-10 20:30N 43°04' E 004°57'0 0.4
2017-Oct-10 20:00N 43°04' E 004°57'0 0.1
2017-Oct-10 19:30N 43°04' E 004°57'0 0.1
2017-Oct-10 19:00N 43°04' E 004°57'0 0.1
2017-Oct-10 18:30N 43°04' E 004°57'0 0.3
2017-Oct-10 18:00N 43°04' E 004°57'0 0.2
2017-Oct-10 17:30N 43°04' E 004°57'0 0.1
2017-Oct-10 17:01N 43°04' E 004°57'0 0.1
2017-Oct-10 16:30N 43°04' E 004°57'0 0.4
2017-Oct-10 16:00N 43°04' E 004°57'0 0.4
2017-Oct-10 15:31N 43°05' E 004°57'0 0.5
2017-Oct-10 15:00N 43°05' E 004°57'4 4.1
2017-Oct-10 14:01N 43°07' E 005°02'1 2.6
2017-Oct-10 13:30N 43°06' E 005°03'5 9.5
2017-Oct-10 13:00N 43°04' E 005°09'5 9.7
2017-Oct-10 12:30N 43°02' E 005°15'5 9.8
2017-Oct-10 12:00N 42°60' E 005°21'  
Track history (hours):
 
Tides and Currents Weather Stations Pressure Air Temp Water Temp Dewpoint Dewpoint Depression Visibility Wind Speed Wind Dir Waves Ship Positions

Maersk Newport

Last reported at 2017-Oct-19 12:00 UTC. Time now 2017-Oct-20 12:45 UTC.
Position N 35°42' E 015°54'.

Length 210 m; draft 9 m.

Type: Ship. MMSI: 219223000.

Wind from 180 at 9 knots

Barometer 1020.1 mb
Air temperature 27.0 ° C
Visibility: greater than 10.8 NM

Date/timePositionNaut miles runAvg speedWind from/ knotsBaromVisibWave heightAir tempDewpointWater temp
2017-Oct-19 12:00N 35°42' E 015°54'6315.8 180 / 91020.110.8 27.0
2017-Oct-19 08:00N 36°06' E 014°42'319.6 180 / 101020.010.8 23.518.023.4
2017-Oct-19 07:51N 36°07' E 014°45'514.7
2017-Oct-19 07:30N 36°09' E 014°39'714.6
2017-Oct-19 07:00N 36°11' E 014°30'814.8
2017-Oct-19 06:30N 36°14' E 014°21'714.7
2017-Oct-19 06:00N 36°17' E 014°13'714.5
2017-Oct-19 05:30N 36°19' E 014°05'714.9
2017-Oct-19 05:00N 36°22' E 013°56'814.9
2017-Oct-19 04:30N 36°25' E 013°47'714.6
2017-Oct-19 04:00N 36°28' E 013°39'37314.3
2017-Oct-18 02:01N 37°21' E 005°58'214.6
2017-Oct-18 01:52N 37°21' E 005°55'53315.0
2017-Oct-16 14:22N 36°02' W 005°02'1315.7
2017-Oct-16 13:31N 36°03' W 005°19'714.3
2017-Oct-16 13:00N 36°08' W 005°24'1 0.2
2017-Oct-16 05:18N 36°09' W 005°26'0 0.0
2017-Oct-16 05:00N 36°09' W 005°26'0 0.0
2017-Oct-16 04:27N 36°09' W 005°26'0 0.0
2017-Oct-16 04:00N 36°09' W 005°26'0 0.0
2017-Oct-16 03:27N 36°09' W 005°26'0 0.0
2017-Oct-16 03:00N 36°09' W 005°26'0 0.0
2017-Oct-16 01:09N 36°09' W 005°26'0 0.0
2017-Oct-16 01:00N 36°09' W 005°26'0 0.0
2017-Oct-16 00:30N 36°09' W 005°26'0 0.0
2017-Oct-16 00:00N 36°09' W 005°26'0 0.0
2017-Oct-15 23:30N 36°09' W 005°26'0 0.0
2017-Oct-15 22:57N 36°09' W 005°26'0 0.0
2017-Oct-15 22:21N 36°09' W 005°26'0 0.0
2017-Oct-15 22:00N 36°09' W 005°26'0 0.0
2017-Oct-15 21:30N 36°09' W 005°26'0 0.0
2017-Oct-15 20:57N 36°09' W 005°26'0 0.0
2017-Oct-15 20:30N 36°09' W 005°26'0 0.0
2017-Oct-15 19:42N 36°09' W 005°26'0 0.0
2017-Oct-15 19:30N 36°09' W 005°26'0 0.0
2017-Oct-15 19:00N 36°09' W 005°26'0 0.0
2017-Oct-14 22:57N 36°09' W 005°26'2 3.3
2017-Oct-14 22:29N 36°09' W 005°24'5 9.4
2017-Oct-14 21:58N 36°04' W 005°21'612.7
2017-Oct-14 21:30N 36°04' W 005°14'815.1
2017-Oct-14 20:59N 36°05' W 005°05'19715.1
2017-Oct-14 08:00N 37°06' W 001°12'414.5 040 / 131025.910.8 23.520.424.2
2017-Oct-14 07:45N 37°09' W 001°10'816.3
2017-Oct-14 07:15N 37°14' W 001°02'416.2
2017-Oct-14 07:00N 37°17' W 000°58'816.2
2017-Oct-14 06:30N 37°22' W 000°50'816.0
2017-Oct-14 06:00N 37°28' W 000°43'816.1
2017-Oct-14 05:30N 37°33' W 000°36'816.1
2017-Oct-14 05:00N 37°39' W 000°29'816.3
2017-Oct-14 04:29N 37°46' W 000°23'816.5
2017-Oct-14 04:00N 37°53' W 000°17'816.5
2017-Oct-14 03:30N 37°60' W 000°12'816.5
2017-Oct-14 03:00N 38°07' W 000°06'816.4
2017-Oct-14 02:30N 38°13' W 000°00'916.3
2017-Oct-14 01:57N 38°21' E 000°06'716.2
2017-Oct-14 01:30N 38°27' E 000°12'816.2
2017-Oct-14 01:00N 38°33' E 000°18'815.9
2017-Oct-14 00:30N 38°40' E 000°23'714.5
2017-Oct-14 00:00N 38°47' E 000°23'225 7.1
2017-Oct-12 16:23N 41°45' E 003°24'917.1
2017-Oct-12 15:52N 41°52' E 003°32'617.7
2017-Oct-12 15:30N 41°57' E 003°38'917.4
2017-Oct-12 15:00N 42°03' E 003°46'917.7
2017-Oct-12 14:30N 42°10' E 003°54'917.6
2017-Oct-12 14:00N 42°16' E 004°02'917.7
2017-Oct-12 13:30N 42°23' E 004°10'917.8
2017-Oct-12 13:00N 42°29' E 004°18'917.9
2017-Oct-12 12:31N 42°36' E 004°26'918.2
2017-Oct-12 12:00N 42°43' E 004°34'918.1
2017-Oct-12 11:31N 42°50' E 004°41'918.0
2017-Oct-12 11:00N 42°58' E 004°48'918.3
2017-Oct-12 10:30N 43°05' E 004°56'917.7
2017-Oct-12 10:00N 43°13' E 005°01'917.6
2017-Oct-12 09:30N 43°22' E 004°58'510.6
2017-Oct-12 09:00N 43°24' E 004°52'1 2.1
2017-Oct-12 08:31N 43°25' E 004°50'0 0.0
2017-Oct-12 07:58N 43°25' E 004°50'0 0.0
2017-Oct-12 07:31N 43°25' E 004°50'22 0.7
2017-Oct-11 00:00N 43°03' E 004°57'0 0.4
2017-Oct-10 23:30N 43°03' E 004°57'0 0.6
2017-Oct-10 23:00N 43°04' E 004°57'0 0.5
2017-Oct-10 22:30N 43°04' E 004°57'0 0.2
2017-Oct-10 22:00N 43°04' E 004°57'0 0.3
2017-Oct-10 21:31N 43°04' E 004°57'0 0.3
2017-Oct-10 21:00N 43°04' E 004°57'0 0.1
2017-Oct-10 20:30N 43°04' E 004°57'0 0.4
2017-Oct-10 20:00N 43°04' E 004°57'0 0.1
2017-Oct-10 19:30N 43°04' E 004°57'0 0.1
2017-Oct-10 19:00N 43°04' E 004°57'0 0.1
2017-Oct-10 18:30N 43°04' E 004°57'0 0.3
2017-Oct-10 18:00N 43°04' E 004°57'0 0.2
2017-Oct-10 17:30N 43°04' E 004°57'0 0.1
2017-Oct-10 17:01N 43°04' E 004°57'0 0.1
2017-Oct-10 16:30N 43°04' E 004°57'0 0.4
2017-Oct-10 16:00N 43°04' E 004°57'0 0.4
2017-Oct-10 15:31N 43°05' E 004°57'0 0.5
2017-Oct-10 15:00N 43°05' E 004°57'4 4.1
2017-Oct-10 14:01N 43°07' E 005°02'1 2.6
2017-Oct-10 13:30N 43°06' E 005°03'5 9.5
2017-Oct-10 13:00N 43°04' E 005°09'5 9.7
2017-Oct-10 12:30N 43°02' E 005°15'5 9.8
2017-Oct-10 12:00N 42°60' E 005°21'  

Dump ship's entire track history